Terminal Aerodrome Forecast
Issued by NWS Cleveland, OH

Home | Current Version | Previous Version | Graphics & Text | Print | Product List | Glossary On
Versions: 1 2 3 4 5 6 7 8 9 10 11 12 13 14 15
000
FTUS41 KCLE 290901 AAB
TAFCAK
TAF AMD
KCAK 290901Z 2909/3006 VRB03KT 3/4SM BR OVC002
     FM291300 06003KT 4SM BR BKN006
     FM291400 06004KT P6SM BKN012
     FM291700 05005KT P6SM BKN035
     FM292000 33008KT P6SM VCTS BKN040CB
     FM300000 VRB03KT P6SM SCT060 OVC100=

USA.gov is the U.S. government's official web portal to all federal, state and local government web resources and services.